Bei Facebook empfehlenBei Twitter postenGoogle plusPinterest

Das Wetter im Erzgebirge am 07.06.2017

Wetter und Klima am 07.06.2017 Holzhau im Erzgebirge (630m ü.NN)
Letzte gemessene Temperatur und Uhrzeit der Messung23:45:00 Uhr7.80 °C
Temperatur (Maximum / Höchstwert) und Uhrzeit der Messung17:00:00 Uhr17.50 °C
Temperatur (Minimum / Tiefstwert) und Uhrzeit der Messung05:30:006.60 °C
Errechneter Absolutwert der Temperaturschwankungen zwischen Tmin und Tmax des Tages10.90 K
Errechnete Tagesmitteltemperatur11.79479 °C
Gesamt - Niederschlag des Tages (in flüssiger Form)0.00 Liter / m²
Luftdruck (Maximum / Höchstwert) und Zeitpunkt der Messung23:30:00 Uhr1015.80 hPa
Luftdruck (Minimum / Tiefstwert) und Zeitpunkt der Messung00:30:00 Uhr1004.50 hPa
Errechneter Absolutwert der Luftdruckschwankungen des Tages11.30 hPa
Höchste gemessene Windgeschwindigkeit und Uhrzeit der Messung01:30:00 Uhr55.80 km/h
Errechnete Windhäufigkeit in Relation zu den Messwerten des Tages42.70833 %
Niedrigste Windkühle (Windchill) und Zeitpunkt der Messung04:00:00 Uhr5.00 °C
Taupunkt (Maximum / Höchstwert) und Uhrzeit der Messung00:00:00 Uhr8.00 °C
Taupunkt (Minimum / Tiefstwert) und Uhrzeit der Messung23:00:003.10 °C
Anzahl der automatisch eingelesenen Messwerte 96

Detaillierte Wetter- und Klima- Messwerte für den 07.06.2017 in Holzhau im Erzgebirge (630m ü.NN)
ZeitTemperaturLuftdruckRel. LuftfeuchteWindWindrichtungWindchillTaupunktNiederschlag l/m²
23:45:007.80 °C1015.70 hPa79.00 %4.40 °C 
23:30:008.10 °C1015.80 hPa80.00 %4.90 °C 
23:15:007.30 °C1015.70 hPa76.00 %3.40 °C 
23:00:007.60 °C1015.60 hPa73.00 %3.10 °C 
22:45:008.20 °C1015.70 hPa71.00 %3.30 °C 
22:30:008.90 °C1015.60 hPa71.00 %3.90 °C 
22:15:009.10 °C1015.40 hPa71.00 %4.10 °C 
22:00:008.90 °C1015.10 hPa70.00 %3.70 °C 
21:45:009.30 °C1014.70 hPa69.00 %3.90 °C 
21:30:009.40 °C1014.70 hPa68.00 %3.80 °C 
21:15:009.60 °C1014.40 hPa65.00 %3.40 °C 
21:00:0010.40 °C1014.20 hPa61.00 %3.20 °C 
20:45:0011.30 °C1014.10 hPa60.00 %3.80 °C 
20:30:0011.80 °C1013.90 hPa58.00 %3.80 °C 
20:15:0011.90 °C1014.00 hPa58.00 %16.92 km/hSW11.90 °C3.90 °C 
20:00:0012.30 °C1014.00 hPa55.00 %3.50 °C 
19:45:0013.10 °C1013.80 hPa53.00 %3.70 °C 
19:30:0014.10 °C1013.50 hPa50.00 %3.80 °C 
19:15:0014.40 °C1013.30 hPa52.00 %16.92 km/hNW14.40 °C4.70 °C 
19:00:0014.40 °C1013.10 hPa51.00 %4.40 °C 
18:45:0014.00 °C1013.20 hPa51.00 %4.00 °C 
18:30:0014.40 °C1013.00 hPa50.00 %21.96 km/hW14.50 °C4.10 °C 
18:15:0014.80 °C1012.80 hPa47.00 %32.40 km/hSW14.50 °C3.60 °C 
18:00:0015.60 °C1012.60 hPa46.00 %25.92 km/hWNW15.70 °C4.00 °C 
17:45:0015.10 °C1012.50 hPa46.00 %3.60 °C 
17:30:0016.40 °C1012.10 hPa43.00 %3.80 °C 
17:15:0016.90 °C1012.20 hPa43.00 %4.30 °C 
17:00:0017.50 °C1012.00 hPa44.00 %6.48 km/hW17.50 °C5.10 °C 
16:45:0016.90 °C1011.80 hPa44.00 %4.60 °C 
16:30:0016.90 °C1011.70 hPa47.00 %5.50 °C 
16:15:0016.30 °C1011.50 hPa44.00 %4.00 °C 
16:00:0016.70 °C1011.50 hPa48.00 %5.60 °C 
15:45:0016.10 °C1011.30 hPa44.00 %47.88 km/hSSW15.60 °C3.90 °C 
15:30:0017.10 °C1011.30 hPa45.00 %5.10 °C 
15:15:0016.80 °C1011.40 hPa47.00 %3.96 km/hNW16.80 °C5.40 °C 
15:00:0016.60 °C1011.20 hPa45.00 %6.48 km/hNNW16.60 °C4.60 °C 
14:45:0015.90 °C1011.40 hPa51.00 %11.52 km/hWNW15.90 °C5.80 °C 
14:30:0015.90 °C1011.30 hPa48.00 %4.90 °C 
14:15:0016.20 °C1011.10 hPa48.00 %5.20 °C 
14:00:0015.90 °C1011.20 hPa49.00 %5.20 °C 
13:45:0016.40 °C1011.10 hPa52.00 %6.50 °C 
13:30:0015.50 °C1011.00 hPa51.00 %10.44 km/hWNW15.50 °C5.40 °C 
13:15:0015.30 °C1011.20 hPa47.00 %32.40 km/hSSW15.10 °C4.10 °C 
13:00:0015.50 °C1010.90 hPa48.00 %28.44 km/hSW15.50 °C4.50 °C 
12:45:0014.40 °C1010.80 hPa51.00 %32.40 km/hNNW14.00 °C4.40 °C 
12:30:0014.30 °C1010.90 hPa51.00 %53.28 km/hSW13.20 °C4.30 °C 
12:15:0014.40 °C1010.80 hPa52.00 %27.36 km/hWNW14.20 °C4.70 °C 
12:00:0014.40 °C1011.00 hPa52.00 %7.92 km/hW14.40 °C4.70 °C 
11:45:0014.40 °C1010.90 hPa51.00 %4.40 °C 
11:30:0014.40 °C1011.00 hPa54.00 %5.20 °C 
11:15:0014.40 °C1011.00 hPa53.00 %32.40 km/hW14.00 °C5.00 °C 
11:00:0013.90 °C1010.90 hPa55.00 %38.88 km/hSW13.20 °C5.00 °C 
10:45:0013.30 °C1010.90 hPa56.00 %28.44 km/hWNW12.90 °C4.70 °C 
10:30:0013.60 °C1010.60 hPa60.00 %6.00 °C 
10:15:0013.80 °C1010.40 hPa58.00 %24.48 km/hSSW13.70 °C5.70 °C 
10:00:0013.10 °C1010.40 hPa63.00 %27.36 km/hS12.70 °C6.20 °C 
09:45:0013.40 °C1010.10 hPa61.00 %23.40 km/hNW13.30 °C6.00 °C 
09:30:0013.30 °C1009.80 hPa64.00 %6.60 °C 
09:15:0012.20 °C1009.90 hPa65.00 %5.80 °C 
09:00:0011.90 °C1009.60 hPa68.00 %6.20 °C 
08:45:0011.20 °C1009.50 hPa68.00 %5.50 °C 
08:30:0011.30 °C1009.30 hPa67.00 %5.40 °C 
08:15:0012.50 °C1008.80 hPa66.00 %6.30 °C 
08:00:0012.40 °C1008.50 hPa67.00 %6.50 °C 
07:45:0012.40 °C1007.90 hPa66.00 %41.40 km/hNW11.30 °C6.20 °C 
07:30:0011.80 °C1007.90 hPa71.00 %6.70 °C 
07:15:009.40 °C1007.50 hPa78.00 %34.92 km/hSSW8.00 °C5.80 °C 
07:00:008.10 °C1007.40 hPa80.00 %37.44 km/hN6.30 °C4.90 °C 
06:45:007.80 °C1007.50 hPa81.00 %4.70 °C 
06:30:007.50 °C1007.60 hPa81.00 %4.50 °C 
06:15:007.20 °C1007.00 hPa82.00 %18.00 km/hSSW6.60 °C4.30 °C 
06:00:006.90 °C1006.90 hPa83.00 %12.96 km/hW6.90 °C4.20 °C 
05:45:006.70 °C1006.90 hPa83.00 %4.00 °C 
05:30:006.60 °C1006.60 hPa83.00 %15.48 km/hWSW6.60 °C3.90 °C 
05:15:006.70 °C1006.70 hPa82.00 %3.90 °C 
05:00:006.90 °C1006.40 hPa82.00 %4.00 °C 
04:45:007.00 °C1006.30 hPa82.00 %4.10 °C 
04:30:007.20 °C1006.20 hPa81.00 %7.92 km/hSW7.20 °C4.20 °C 
04:15:007.30 °C1005.90 hPa81.00 %33.84 km/hSW5.50 °C4.30 °C 
04:00:007.40 °C1006.00 hPa81.00 %47.88 km/hSW5.00 °C4.40 °C 
03:45:007.40 °C1006.00 hPa81.00 %27.36 km/hSW6.10 °C4.40 °C 
03:30:007.40 °C1006.00 hPa81.00 %15.48 km/hSSW7.40 °C4.40 °C 
03:15:007.60 °C1005.80 hPa80.00 %5.04 km/hSW7.60 °C4.40 °C 
03:00:007.80 °C1005.90 hPa80.00 %46.80 km/hSSW5.50 °C4.60 °C 
02:45:008.00 °C1005.80 hPa79.00 %30.96 km/hSW6.50 °C4.60 °C 
02:30:008.40 °C1005.60 hPa78.00 %4.80 °C 
02:15:008.90 °C1005.80 hPa77.00 %5.10 °C 
02:00:009.20 °C1005.70 hPa77.00 %5.40 °C 
01:45:009.50 °C1005.70 hPa80.00 %6.20 °C 
01:30:009.80 °C1005.60 hPa80.00 %55.80 km/hWNW7.60 °C6.50 °C 
01:15:0010.10 °C1005.20 hPa80.00 %33.84 km/hW8.90 °C6.80 °C 
01:00:0010.20 °C1005.00 hPa82.00 %7.30 °C 
00:45:0010.30 °C1004.80 hPa82.00 %30.96 km/hSW9.20 °C7.40 °C 
00:30:0010.40 °C1004.50 hPa82.00 %7.50 °C 
00:15:0010.60 °C1004.50 hPa83.00 %12.96 km/hWSW10.60 °C7.80 °C 
00:00:0010.60 °C1004.60 hPa84.00 %8.00 °C 

Permanenter Link zu dieser Seite: Wetter im Erzgebirge am 07.06.2017
Performance-Info: Die Erstellung der Seite / Statistik(en) / Tabelle(n) erforderte 5 Datenbankserver-Abfrage(n) und dauerte 100 Millisekunden. (Dieser Messwert ist von der Gesamt-Auslastung des Servers abhängig.)
Erzgebirge - Wetter | Erzgebirge - Wetter (Mobilgeräte) | Komplette Klimadatenbank